createdAt,value
2022-12-18T00:01:26.804Z,19.33
2022-12-18T00:03:56.007Z,18.77
2022-12-18T00:06:25.071Z,18.80
2022-12-18T00:08:54.279Z,18.33
2022-12-18T00:11:26.814Z,18.98
2022-12-18T00:13:57.518Z,17.80
2022-12-18T00:16:26.910Z,18.42
2022-12-18T00:18:56.133Z,18.67
2022-12-18T00:21:24.306Z,20.73
2022-12-18T00:23:52.939Z,19.10
2022-12-18T00:26:22.046Z,19.88
2022-12-18T00:28:50.859Z,18.60
2022-12-18T00:31:21.816Z,19.77
2022-12-18T00:33:52.699Z,19.58
2022-12-18T00:36:24.267Z,20.50
2022-12-18T00:38:52.917Z,20.42
2022-12-18T00:41:35.171Z,19.95
2022-12-18T00:44:03.165Z,19.73
2022-12-18T00:46:32.708Z,20.13
2022-12-18T00:49:01.219Z,19.08
2022-12-18T00:51:29.553Z,21.17
2022-12-18T00:53:57.773Z,21.35
2022-12-18T00:56:27.658Z,20.27
2022-12-18T00:58:57.005Z,20.25
2022-12-18T01:01:25.722Z,19.48
2022-12-18T01:03:55.636Z,19.85
2022-12-18T01:06:23.807Z,20.20
2022-12-18T01:08:52.082Z,19.48
2022-12-18T01:11:20.769Z,17.33
2022-12-18T01:13:49.345Z,18.33
2022-12-18T01:16:19.169Z,18.45
2022-12-18T01:18:47.882Z,17.73
2022-12-18T01:21:32.353Z,17.85
2022-12-18T01:24:02.259Z,16.83
2022-12-18T01:26:31.617Z,15.63
2022-12-18T01:29:00.116Z,17.48
2022-12-18T01:31:29.647Z,17.55
2022-12-18T01:33:58.488Z,17.52
2022-12-18T01:36:27.935Z,17.80
2022-12-18T01:38:57.143Z,15.30
2022-12-18T01:41:28.099Z,17.15
2022-12-18T01:43:59.851Z,15.65
2022-12-18T01:46:29.416Z,15.50
2022-12-18T01:49:00.153Z,15.93
2022-12-18T01:51:29.652Z,17.98
2022-12-18T01:53:58.669Z,16.58
2022-12-18T01:56:29.338Z,17.73
2022-12-18T01:59:00.498Z,15.68
2022-12-18T02:01:29.083Z,15.68
2022-12-18T02:03:57.271Z,17.05
2022-12-18T02:06:30.180Z,15.90
2022-12-18T02:09:03.930Z,16.00
2022-12-18T02:11:41.902Z,15.40
2022-12-18T02:14:17.096Z,15.48
2022-12-18T02:16:47.578Z,16.05
2022-12-18T02:19:23.647Z,15.93
2022-12-18T02:21:58.161Z,16.40
2022-12-18T02:24:32.200Z,15.93
2022-12-18T02:27:03.824Z,15.50
2022-12-18T02:29:34.017Z,15.93
2022-12-18T02:32:02.891Z,16.48
2022-12-18T02:34:32.174Z,15.90
2022-12-18T02:37:02.588Z,16.48
2022-12-18T02:39:31.937Z,16.58
2022-12-18T02:42:03.475Z,15.88
2022-12-18T02:44:32.191Z,16.65
2022-12-18T02:47:00.370Z,17.10
2022-12-18T02:49:32.688Z,16.13
2022-12-18T02:52:04.331Z,16.77
2022-12-18T02:54:39.296Z,16.65
2022-12-18T02:57:15.637Z,18.52
2022-12-18T02:59:47.336Z,18.67
2022-12-18T03:02:21.316Z,17.23
2022-12-18T03:04:52.204Z,17.15
2022-12-18T03:07:22.269Z,16.88
2022-12-18T03:09:54.852Z,17.35
2022-12-18T03:12:26.370Z,17.50
2022-12-18T03:14:59.280Z,16.92
2022-12-18T03:17:29.211Z,17.55
2022-12-18T03:19:59.205Z,17.25
2022-12-18T03:22:29.430Z,18.88
2022-12-18T03:24:58.256Z,16.50
2022-12-18T03:27:29.758Z,18.70
2022-12-18T03:30:03.919Z,17.75
2022-12-18T03:32:36.267Z,18.38
2022-12-18T03:35:06.357Z,17.15
2022-12-18T03:37:34.833Z,18.25
2022-12-18T03:40:03.105Z,18.20
2022-12-18T03:42:34.905Z,18.23
2022-12-18T03:45:06.491Z,17.98
2022-12-18T03:47:38.147Z,18.17
2022-12-18T03:50:13.208Z,17.70
2022-12-18T03:52:43.742Z,18.40
2022-12-18T03:55:12.368Z,16.63
2022-12-18T03:57:44.068Z,18.42
2022-12-18T04:00:14.279Z,17.88
2022-12-18T04:02:45.546Z,18.67
2022-12-18T04:05:15.108Z,17.08
2022-12-18T04:07:43.747Z,19.33
2022-12-18T04:10:12.925Z,18.95
2022-12-18T04:12:42.992Z,18.00
2022-12-18T04:15:12.080Z,17.40
2022-12-18T04:17:40.483Z,17.98
2022-12-18T04:20:09.479Z,16.63
2022-12-18T04:22:37.625Z,17.83
2022-12-18T04:25:06.163Z,17.58
2022-12-18T04:27:34.613Z,18.60
2022-12-18T04:30:04.370Z,18.52
2022-12-18T04:32:32.932Z,19.95
2022-12-18T04:35:01.218Z,19.67
2022-12-18T04:37:29.783Z,19.25
2022-12-18T04:39:58.419Z,20.33
2022-12-18T04:42:29.310Z,19.38
2022-12-18T04:44:57.350Z,19.23
2022-12-18T04:47:26.904Z,19.52
2022-12-18T04:49:55.372Z,18.42
2022-12-18T04:52:26.785Z,18.55
2022-12-18T04:54:54.976Z,18.00
2022-12-18T04:57:23.089Z,19.35
2022-12-18T04:59:51.695Z,18.00
2022-12-18T05:02:20.148Z,19.45
2022-12-18T05:04:50.049Z,18.67
2022-12-18T05:07:18.139Z,16.80
2022-12-18T05:09:46.675Z,18.23
2022-12-18T05:12:15.115Z,17.63
2022-12-18T05:14:45.124Z,17.10
2022-12-18T05:17:13.491Z,15.38
2022-12-18T05:19:42.249Z,18.58
2022-12-18T05:22:12.389Z,18.77
2022-12-18T05:24:40.896Z,18.83
2022-12-18T05:27:09.084Z,18.10
2022-12-18T05:29:38.968Z,20.52
2022-12-18T05:32:07.381Z,17.48
2022-12-18T05:34:35.614Z,19.27
2022-12-18T05:37:04.056Z,18.85
2022-12-18T05:39:34.088Z,19.85
2022-12-18T05:42:02.311Z,20.75
2022-12-18T05:44:30.736Z,18.95
2022-12-18T05:46:58.815Z,18.63
2022-12-18T05:49:27.817Z,17.35
2022-12-18T05:51:56.168Z,18.92
2022-12-18T05:54:24.709Z,22.20
2022-12-18T05:56:54.952Z,19.02
2022-12-18T05:59:23.499Z,20.63
2022-12-18T06:01:51.998Z,21.70
2022-12-18T06:04:20.452Z,23.45
2022-12-18T06:06:48.593Z,24.52
2022-12-18T06:09:17.416Z,18.27
2022-12-18T06:11:45.480Z,20.13
2022-12-18T06:14:15.089Z,20.77
2022-12-18T06:16:43.471Z,18.73
2022-12-18T06:19:16.535Z,18.77
2022-12-18T06:21:45.079Z,21.60
2022-12-18T06:24:13.777Z,19.80
2022-12-18T06:26:42.343Z,24.77
2022-12-18T06:29:10.915Z,24.52
2022-12-18T06:31:40.886Z,22.25
2022-12-18T06:34:09.232Z,22.73
2022-12-18T06:36:37.477Z,22.60
2022-12-18T06:39:06.643Z,23.48
2022-12-18T06:41:35.547Z,25.05
2022-12-18T06:44:04.193Z,25.67
2022-12-18T06:46:33.316Z,27.95
2022-12-18T06:49:03.324Z,27.10
2022-12-18T06:51:31.895Z,28.05
2022-12-18T06:54:00.201Z,28.98
2022-12-18T06:56:29.137Z,26.20
2022-12-18T06:58:57.615Z,27.33
2022-12-18T07:01:26.253Z,26.60
2022-12-18T07:03:55.693Z,26.35
2022-12-18T07:06:26.029Z,25.10
2022-12-18T07:08:55.444Z,25.13
2022-12-18T07:11:27.123Z,26.77
2022-12-18T07:13:56.809Z,26.95
2022-12-18T07:16:29.512Z,26.75
2022-12-18T07:18:57.869Z,28.25
2022-12-18T07:21:27.944Z,24.55
2022-12-18T07:23:56.111Z,27.40
2022-12-18T07:26:24.822Z,25.98
2022-12-18T07:28:56.808Z,25.02
2022-12-18T07:31:25.424Z,24.27
2022-12-18T07:33:55.873Z,23.73
2022-12-18T07:36:24.196Z,22.70
2022-12-18T07:38:54.300Z,23.58
2022-12-18T07:41:23.283Z,24.33
2022-12-18T07:43:51.602Z,24.33
2022-12-18T07:46:24.564Z,24.42
2022-12-18T07:48:54.537Z,25.17
2022-12-18T07:51:24.755Z,25.00
2022-12-18T07:53:56.029Z,24.05
2022-12-18T07:56:27.557Z,24.25
2022-12-18T07:59:06.549Z,24.40
2022-12-18T08:01:43.462Z,24.10
2022-12-18T08:04:26.769Z,26.35
2022-12-18T08:07:02.011Z,23.80
2022-12-18T08:09:33.461Z,23.92
2022-12-18T08:12:03.913Z,23.70
2022-12-18T08:14:31.993Z,25.33
2022-12-18T08:17:03.008Z,24.63
2022-12-18T08:19:34.288Z,21.15
2022-12-18T08:22:02.862Z,21.73
2022-12-18T08:24:34.068Z,21.02
2022-12-18T08:29:51.163Z,19.55
2022-12-18T08:32:20.208Z,20.30
2022-12-18T08:34:48.846Z,21.52
2022-12-18T08:37:17.499Z,23.77
2022-12-18T08:39:47.212Z,20.33
2022-12-18T08:42:33.030Z,21.75
2022-12-18T08:45:01.598Z,20.87
2022-12-18T08:47:31.327Z,19.60
2022-12-18T08:49:59.737Z,20.45
2022-12-18T08:52:29.461Z,19.20
2022-12-18T08:55:00.433Z,18.92
2022-12-18T08:57:29.200Z,20.70
2022-12-18T08:59:58.354Z,19.88
2022-12-18T09:02:27.115Z,20.58
2022-12-18T09:04:57.777Z,21.58
2022-12-18T09:07:31.030Z,21.55
2022-12-18T09:10:04.481Z,20.58
2022-12-18T09:12:33.445Z,19.50
2022-12-18T09:15:05.452Z,20.45
2022-12-18T09:17:33.978Z,18.85
2022-12-18T09:20:05.226Z,18.92
2022-12-18T09:22:34.184Z,18.33
2022-12-18T09:25:04.272Z,19.15
2022-12-18T09:27:32.865Z,19.75
2022-12-18T09:30:01.257Z,18.90
2022-12-18T09:32:30.238Z,18.00
2022-12-18T09:34:58.293Z,17.30
2022-12-18T09:37:27.393Z,17.42
2022-12-18T09:39:56.084Z,17.95
2022-12-18T09:42:25.652Z,18.60
2022-12-18T09:44:54.832Z,17.65
2022-12-18T09:47:25.699Z,18.67
2022-12-18T09:49:58.484Z,17.55
2022-12-18T09:52:29.897Z,18.02
2022-12-18T09:55:01.145Z,18.77
2022-12-18T09:57:35.781Z,18.67
2022-12-18T10:00:08.263Z,18.83
2022-12-18T10:02:41.070Z,18.30
2022-12-18T10:05:11.495Z,16.73
2022-12-18T10:07:47.425Z,17.52
2022-12-18T10:10:19.274Z,18.40
2022-12-18T10:12:55.621Z,17.50
2022-12-18T10:15:30.918Z,18.25
2022-12-18T10:18:05.072Z,18.38
2022-12-18T10:20:36.110Z,18.55
2022-12-18T10:23:07.326Z,18.63
2022-12-18T10:25:40.814Z,18.58
2022-12-18T10:28:13.588Z,18.02
2022-12-18T10:30:42.218Z,17.85
2022-12-18T10:33:13.202Z,17.23
2022-12-18T10:35:42.992Z,17.15
2022-12-18T10:38:23.233Z,19.40
2022-12-18T10:40:54.564Z,19.67
2022-12-18T10:43:25.216Z,19.92
2022-12-18T10:46:11.846Z,19.00
2022-12-18T10:51:12.426Z,20.63
2022-12-18T10:53:42.936Z,20.10
2022-12-18T10:56:11.685Z,20.40
2022-12-18T10:58:41.815Z,18.08
2022-12-18T11:01:12.917Z,19.85
2022-12-18T11:03:42.750Z,19.98
2022-12-18T11:06:12.607Z,19.33
2022-12-18T11:08:41.603Z,20.60
2022-12-18T11:11:17.187Z,19.83
2022-12-18T11:13:51.967Z,19.48
2022-12-18T11:16:20.955Z,20.30
2022-12-18T11:18:49.766Z,20.63
2022-12-18T11:21:18.872Z,19.98
2022-12-18T11:23:49.998Z,19.45
2022-12-18T11:26:18.918Z,18.63
2022-12-18T11:28:49.292Z,19.52
2022-12-18T11:31:28.745Z,19.27
2022-12-18T11:34:27.398Z,18.67
2022-12-18T11:36:49.099Z,18.88
2022-12-18T11:39:20.822Z,20.48
2022-12-18T11:42:11.784Z,19.50
2022-12-18T11:44:44.560Z,20.75
2022-12-18T11:47:17.717Z,19.67
2022-12-18T11:49:50.356Z,20.15
2022-12-18T11:52:20.900Z,19.98
2022-12-18T11:54:51.929Z,20.25
2022-12-18T11:57:26.410Z,20.70
2022-12-18T11:59:58.486Z,21.88
2022-12-18T12:02:33.936Z,21.58
2022-12-18T12:05:07.435Z,21.90
2022-12-18T12:07:41.312Z,20.88
2022-12-18T12:10:16.817Z,23.33
2022-12-18T12:12:54.934Z,21.75
2022-12-18T12:15:30.341Z,20.98
2022-12-18T12:18:05.724Z,21.60
2022-12-18T12:20:41.996Z,21.52
2022-12-18T12:23:17.545Z,21.42
2022-12-18T12:25:49.409Z,21.20
2022-12-18T12:28:22.206Z,21.63
2022-12-18T12:31:02.699Z,21.50
2022-12-18T12:33:36.813Z,20.50
2022-12-18T12:36:07.918Z,20.52
2022-12-18T12:38:38.872Z,19.60
2022-12-18T12:41:32.965Z,21.23
2022-12-18T12:44:02.645Z,21.67
2022-12-18T12:46:34.989Z,20.63
2022-12-18T12:49:12.961Z,20.33
2022-12-18T12:51:59.885Z,22.02
2022-12-18T12:54:31.453Z,19.95
2022-12-18T12:57:44.501Z,21.17
2022-12-18T13:00:28.532Z,21.88
2022-12-18T13:03:06.081Z,21.40
2022-12-18T13:05:43.698Z,20.67
2022-12-18T13:08:17.777Z,20.48
2022-12-18T13:10:52.119Z,20.63
2022-12-18T13:13:48.581Z,20.90
2022-12-18T13:16:11.708Z,18.63
2022-12-18T13:18:52.653Z,23.08
2022-12-18T13:21:24.439Z,21.45
2022-12-18T13:23:54.819Z,21.65
2022-12-18T13:26:38.686Z,21.45
2022-12-18T13:29:07.344Z,21.63
2022-12-18T13:31:57.445Z,21.90
2022-12-18T13:34:30.605Z,21.73
2022-12-18T13:37:21.803Z,21.63
2022-12-18T13:39:50.573Z,20.27
2022-12-18T13:42:56.694Z,22.88
2022-12-18T13:45:47.748Z,21.67
2022-12-18T13:48:20.285Z,20.50
2022-12-18T13:53:47.701Z,22.20
2022-12-18T13:56:20.576Z,20.58
2022-12-18T13:59:06.572Z,21.17
2022-12-18T14:01:36.755Z,20.23
2022-12-18T14:04:14.968Z,22.25
2022-12-18T14:06:46.550Z,20.55
2022-12-18T14:09:21.503Z,22.02
2022-12-18T14:12:16.591Z,22.35
2022-12-18T14:14:46.630Z,21.65
2022-12-18T14:17:17.784Z,21.48
2022-12-18T14:19:48.098Z,21.83
2022-12-18T14:22:20.513Z,21.20
2022-12-18T14:24:50.140Z,22.08
2022-12-18T14:27:23.268Z,20.70
2022-12-18T14:30:01.551Z,22.13
2022-12-18T14:32:30.151Z,22.25
2022-12-18T14:35:06.444Z,22.67
2022-12-18T14:37:38.287Z,23.35
2022-12-18T14:40:11.237Z,21.52
2022-12-18T14:42:40.100Z,22.92
2022-12-18T14:45:41.113Z,23.67
2022-12-18T14:48:22.867Z,22.35
2022-12-18T14:50:59.686Z,25.40
2022-12-18T14:53:34.711Z,24.02
2022-12-18T14:56:03.648Z,23.20
2022-12-18T14:58:31.786Z,22.60
2022-12-18T15:01:10.499Z,25.30
2022-12-18T15:03:46.036Z,24.98
2022-12-18T15:06:19.212Z,23.98
2022-12-18T15:08:49.277Z,24.92
2022-12-18T15:11:34.213Z,25.60
2022-12-18T15:14:02.844Z,26.33
2022-12-18T15:16:31.383Z,22.33
2022-12-18T15:18:59.899Z,26.63
2022-12-18T15:21:31.693Z,26.30
2022-12-18T15:24:01.612Z,26.02
2022-12-18T15:26:39.242Z,23.27
2022-12-18T15:29:11.307Z,25.77
2022-12-18T15:31:42.431Z,25.20
2022-12-18T15:34:15.586Z,25.92
2022-12-18T15:36:49.694Z,24.95
2022-12-18T15:39:20.040Z,26.23
2022-12-18T15:42:02.030Z,25.83
2022-12-18T15:44:30.851Z,26.38
2022-12-18T15:46:59.038Z,26.63
2022-12-18T15:49:27.346Z,27.20
2022-12-18T15:51:56.726Z,28.30
2022-12-18T15:54:44.774Z,28.20
2022-12-18T15:57:25.606Z,24.63
2022-12-18T15:59:55.254Z,26.05
2022-12-18T16:02:24.805Z,27.42
2022-12-18T16:04:53.501Z,27.02
2022-12-18T16:07:24.585Z,30.33
2022-12-18T16:09:55.792Z,29.27
2022-12-18T16:12:29.580Z,28.13
2022-12-18T16:14:58.080Z,27.83
2022-12-18T16:17:26.380Z,29.50
2022-12-18T16:19:55.538Z,26.33
2022-12-18T16:22:25.075Z,29.92
2022-12-18T16:24:53.639Z,30.08
2022-12-18T16:27:26.384Z,29.17
2022-12-18T16:29:55.001Z,29.13
2022-12-18T16:32:24.515Z,30.30
2022-12-18T16:34:53.497Z,28.63
2022-12-18T16:37:21.729Z,27.25
2022-12-18T16:39:49.793Z,28.02
2022-12-18T16:42:20.545Z,28.17
2022-12-18T16:44:51.712Z,29.05
2022-12-18T16:47:20.538Z,30.17
2022-12-18T16:49:54.243Z,30.45
2022-12-18T16:52:22.793Z,29.02
2022-12-18T16:54:50.961Z,28.33
2022-12-18T16:57:21.518Z,25.38
2022-12-18T16:59:57.713Z,27.25
2022-12-18T17:02:29.707Z,27.73
2022-12-18T17:04:59.001Z,27.70
2022-12-18T17:07:28.271Z,27.77
2022-12-18T17:09:57.127Z,27.85
2022-12-18T17:12:28.456Z,27.85
2022-12-18T17:14:58.369Z,27.58
2022-12-18T17:17:26.676Z,27.55
2022-12-18T17:19:55.316Z,26.83
2022-12-18T17:22:24.332Z,26.50
2022-12-18T17:24:52.701Z,27.17
2022-12-18T17:27:21.229Z,26.95
2022-12-18T17:29:49.958Z,28.05
2022-12-18T17:32:19.811Z,28.02
2022-12-18T17:34:48.087Z,25.92
2022-12-18T17:37:16.456Z,27.52
2022-12-18T17:39:45.074Z,26.15
2022-12-18T17:42:15.255Z,25.65
2022-12-18T17:44:44.975Z,25.10
2022-12-18T17:47:13.638Z,27.85
2022-12-18T17:49:43.368Z,27.60
2022-12-18T17:52:11.427Z,27.60
2022-12-18T17:54:42.265Z,25.60
2022-12-18T17:57:11.267Z,25.65
2022-12-18T17:59:40.174Z,26.05
2022-12-18T18:02:08.782Z,26.00
2022-12-18T18:04:37.366Z,27.20
2022-12-18T18:07:07.405Z,26.00
2022-12-18T18:09:36.070Z,25.95
2022-12-18T18:12:21.757Z,26.48
2022-12-18T18:14:51.887Z,25.63
2022-12-18T18:17:19.913Z,24.23
2022-12-18T18:19:49.669Z,22.75
2022-12-18T18:22:20.192Z,24.80
2022-12-18T18:24:48.838Z,25.10
2022-12-18T18:27:17.226Z,24.55
2022-12-18T18:29:46.262Z,24.20
2022-12-18T18:32:14.830Z,24.55
2022-12-18T18:34:43.056Z,23.83
2022-12-18T18:37:12.032Z,23.92
2022-12-18T18:39:41.999Z,23.40
2022-12-18T18:42:11.016Z,24.52
2022-12-18T18:44:42.234Z,25.00
2022-12-18T18:47:14.205Z,25.50
2022-12-18T18:49:42.674Z,25.30
2022-12-18T18:52:10.835Z,25.60
2022-12-18T18:54:57.283Z,26.00
2022-12-18T18:57:30.866Z,26.45
2022-12-18T18:59:59.059Z,27.80
2022-12-18T19:02:28.816Z,26.40
2022-12-18T19:04:57.952Z,27.65
2022-12-18T19:07:30.571Z,25.58
2022-12-18T19:10:04.197Z,25.23
2022-12-18T19:12:52.853Z,26.02
2022-12-18T19:15:21.968Z,26.67
2022-12-18T19:17:50.298Z,26.25
2022-12-18T19:20:19.290Z,26.60
2022-12-18T19:22:55.693Z,26.48
2022-12-18T19:25:40.342Z,25.80
2022-12-18T19:28:19.267Z,26.67
2022-12-18T19:31:02.856Z,24.45
2022-12-18T19:36:16.889Z,25.83
2022-12-18T19:38:51.584Z,26.33
2022-12-18T19:41:28.994Z,23.20
2022-12-18T19:44:07.893Z,25.13
2022-12-18T19:46:46.210Z,24.80
2022-12-18T19:49:18.208Z,27.05
2022-12-18T19:51:47.618Z,25.55
2022-12-18T19:54:24.225Z,25.30
2022-12-18T19:56:54.877Z,26.08
2022-12-18T19:59:30.225Z,23.77
2022-12-18T20:02:00.217Z,24.92
2022-12-18T20:04:29.780Z,24.48
2022-12-18T20:07:01.679Z,26.77
2022-12-18T20:09:30.505Z,25.27
2022-12-18T20:11:59.249Z,26.70
2022-12-18T20:14:29.527Z,27.33
2022-12-18T20:16:57.898Z,27.42
2022-12-18T20:19:29.009Z,30.42
2022-12-18T20:21:57.677Z,29.92
2022-12-18T20:24:25.841Z,27.52
2022-12-18T20:26:54.238Z,29.08
2022-12-18T20:29:22.395Z,27.02
2022-12-18T20:31:52.759Z,27.00
2022-12-18T20:34:20.978Z,26.75
2022-12-18T20:36:49.672Z,24.85
2022-12-18T20:39:18.570Z,25.42
2022-12-18T20:41:47.872Z,24.63
2022-12-18T20:44:22.530Z,23.85
2022-12-18T20:46:56.683Z,22.60
2022-12-18T20:49:27.657Z,23.30
2022-12-18T20:52:04.179Z,23.83
2022-12-18T20:54:39.223Z,23.75
2022-12-18T20:57:10.967Z,23.70
2022-12-18T20:59:43.339Z,23.23
2022-12-18T21:02:37.244Z,23.25
2022-12-18T21:05:26.971Z,22.02
2022-12-18T21:08:16.259Z,21.95
2022-12-18T21:10:52.779Z,20.88
2022-12-18T21:13:26.539Z,22.27
2022-12-18T21:15:57.032Z,20.73
2022-12-18T21:18:25.671Z,20.85
2022-12-18T21:20:54.279Z,22.75
2022-12-18T21:23:24.545Z,21.52
2022-12-18T21:26:15.678Z,22.33
2022-12-18T21:28:44.750Z,20.83
2022-12-18T21:31:13.697Z,21.67
2022-12-18T21:33:42.272Z,21.60
2022-12-18T21:36:10.916Z,21.35
2022-12-18T21:38:39.099Z,22.67
2022-12-18T21:41:09.815Z,21.90
2022-12-18T21:43:55.759Z,21.48
2022-12-18T21:46:24.281Z,21.87
2022-12-18T21:48:52.834Z,20.42
2022-12-18T21:51:22.279Z,21.83
2022-12-18T21:53:50.416Z,20.02
2022-12-18T21:56:20.370Z,19.48
2022-12-18T21:58:55.787Z,21.23
2022-12-18T22:03:53.954Z,19.52
2022-12-18T22:06:22.521Z,21.20
2022-12-18T22:08:50.835Z,19.83
2022-12-18T22:11:21.354Z,20.40
2022-12-18T22:13:50.842Z,21.20
2022-12-18T22:16:19.130Z,20.50
2022-12-18T22:18:47.689Z,20.13
2022-12-18T22:21:28.775Z,19.63
2022-12-18T22:23:59.208Z,21.00
2022-12-18T22:26:31.828Z,20.10
2022-12-18T22:29:20.839Z,20.90
2022-12-18T22:31:49.494Z,20.07
2022-12-18T22:34:22.653Z,22.48
2022-12-18T22:36:53.210Z,21.80
2022-12-18T22:39:22.141Z,22.23
2022-12-18T22:41:53.317Z,23.67
2022-12-18T22:44:21.919Z,23.15
2022-12-18T22:46:55.856Z,23.42
2022-12-18T22:49:35.104Z,22.98
2022-12-18T22:52:04.318Z,23.90
2022-12-18T22:54:32.543Z,22.23
2022-12-18T22:57:03.953Z,22.33
2022-12-18T22:59:32.938Z,23.15
2022-12-18T23:02:01.211Z,22.25
2022-12-18T23:04:36.452Z,23.60
2022-12-18T23:07:05.465Z,22.65
2022-12-18T23:09:34.061Z,23.23
2022-12-18T23:12:03.932Z,22.60
2022-12-18T23:14:32.337Z,22.70
2022-12-18T23:17:00.735Z,22.55
2022-12-18T23:19:29.337Z,22.48
2022-12-18T23:21:58.882Z,22.73
2022-12-18T23:24:27.318Z,21.75
2022-12-18T23:26:58.933Z,21.90
2022-12-18T23:29:29.015Z,20.85
2022-12-18T23:31:57.604Z,22.15
2022-12-18T23:34:26.149Z,22.45
2022-12-18T23:36:56.188Z,22.63
2022-12-18T23:39:29.419Z,23.27
2022-12-18T23:41:58.620Z,24.00
2022-12-18T23:44:28.328Z,22.02
2022-12-18T23:46:57.090Z,22.65
2022-12-18T23:49:25.351Z,23.30
2022-12-18T23:51:55.305Z,24.40
2022-12-18T23:54:33.577Z,23.63
2022-12-18T23:57:02.535Z,22.58
2022-12-18T23:59:32.384Z,22.10
